Time;durP1;ratioP1;P1;durP2;ratioP2;P2;SDS_P1;SDS_P2;PMS_P1;PMS_P2;Temp;Humidity;BMP_temperature;BMP_pressure;BME280_temperature;BME280_humidity;BME280_pressure;Samples;Min_cycle;Max_cycle;Signal;HPM_P1;HPM_P2
2023/07/11 00:00:48;;;;;;;7.70;2.50;;;;;;;;;;4904498;29;20032;-93
2023/07/11 00:03:15;;;;;;;6.47;2.60;;;;;;;;;;4920746;29;20031;-93
2023/07/11 00:05:51;;;;;;;5.60;2.97;;;;;;;;;;4921713;28;20135;-93
2023/07/11 00:08:21;;;;;;;5.78;2.30;;;;;;;;;;4925679;29;20032;-93
2023/07/11 00:10:50;;;;;;;4.25;2.20;;;;;;;;;;4908971;29;20115;-93
2023/07/11 00:13:28;;;;;;;7.07;2.20;;;;;;;;;;4900350;29;25286;-93
2023/07/11 00:16:04;;;;;;;5.20;2.60;;;;;;;;;;4902171;29;20342;-91
2023/07/11 00:18:34;;;;;;;8.85;2.95;;;;;;;;;;4948869;28;20070;-93
2023/07/11 00:21:04;;;;;;;9.00;2.88;;;;;;;;;;4962058;28;20074;-93
2023/07/11 00:23:31;;;;;;;5.90;2.67;;;;;;;;;;4959861;28;20045;-92
2023/07/11 00:25:59;;;;;;;3.88;2.03;;;;;;;;;;4959966;28;20053;-92
2023/07/11 00:28:28;;;;;;;7.70;2.33;;;;;;;;;;4960493;28;20039;-93
2023/07/11 00:31:01;;;;;;;9.55;2.50;;;;;;;;;;4957077;28;20034;-93
2023/07/11 00:33:28;;;;;;;7.18;3.05;;;;;;;;;;4960470;28;20517;-93
2023/07/11 00:35:56;;;;;;;13.88;2.67;;;;;;;;;;4960175;28;20047;-93
2023/07/11 00:38:23;;;;;;;17.70;2.83;;;;;;;;;;4954924;28;20038;-94
2023/07/11 00:44:19;;;;;;;9.00;4.05;;;;;;;;;;4910239;29;20028;-93
2023/07/11 00:46:46;;;;;;;6.53;2.83;;;;;;;;;;4964719;28;20111;-93
2023/07/11 00:49:16;;;;;;;5.47;2.55;;;;;;;;;;4963715;28;20023;-94
2023/07/11 00:51:44;;;;;;;11.35;3.03;;;;;;;;;;4961136;28;20027;-94
2023/07/11 00:54:17;;;;;;;6.93;2.50;;;;;;;;;;4951954;28;20035;-94
2023/07/11 00:56:47;;;;;;;6.60;2.47;;;;;;;;;;4962780;28;20023;-94
2023/07/11 00:59:26;;;;;;;8.13;2.45;;;;;;;;;;4958843;28;20087;-94
2023/07/11 01:02:03;;;;;;;6.28;2.75;;;;;;;;;;4947109;28;20066;-94
2023/07/11 01:04:38;;;;;;;3.55;2.38;;;;;;;;;;4947445;28;20038;-94
2023/07/11 01:07:12;;;;;;;5.03;2.50;;;;;;;;;;4940188;29;20038;-94
2023/07/11 01:12:59;;;;;;;4.00;2.53;;;;;;;;;;4939256;29;20090;-93
2023/07/11 01:15:26;;;;;;;6.60;2.50;;;;;;;;;;4937527;28;20066;-93
2023/07/11 01:18:45;;;;;;;9.77;2.55;;;;;;;;;;4932699;29;20038;-92
2023/07/11 01:20:54;;;;;;;6.15;2.25;;;;;;;;;;4938743;28;20032;-93
2023/07/11 01:23:51;;;;;;;;;;;;;;;;;;;;;
2023/07/11 01:26:35;;;;;;;7.68;2.40;;;;;;;;;;4957119;28;19914;-93
2023/07/11 01:29:19;;;;;;;;;;;;;;;;;;;;;
2023/07/11 01:31:54;;;;;;;6.45;2.47;;;;;;;;;;4963391;28;20059;-94
2023/07/11 01:34:51;;;;;;;5.05;3.03;;;;;;;;;;4964767;28;20102;-94
2023/07/11 01:37:27;;;;;;;11.98;2.22;;;;;;;;;;4925197;29;20055;-94
2023/07/11 01:40:55;;;;;;;;;;;;;;;;;;;;;
2023/07/11 01:43:17;;;;;;;;;;;;;;;;;;;;;
2023/07/11 01:46:03;;;;;;;8.23;2.60;;;;;;;;;;4968413;29;20142;-93
2023/07/11 01:48:59;;;;;;;5.57;2.28;;;;;;;;;;4930783;29;20044;-93
2023/07/11 01:54:52;;;;;;;7.13;1.80;;;;;;;;;;4927072;28;20040;-94
2023/07/11 01:57:54;;;;;;;6.65;2.67;;;;;;;;;;4967900;28;20071;-92
2023/07/11 02:07:18;;;;;;;9.57;2.90;;;;;;;;;;4931735;28;20069;-93
2023/07/11 02:12:35;;;;;;;12.90;2.92;;;;;;;;;;4890821;29;20025;-93
2023/07/11 02:15:06;;;;;;;9.35;2.80;;;;;;;;;;4961350;28;20058;-93
2023/07/11 02:18:18;;;;;;;9.18;2.75;;;;;;;;;;4963994;28;20023;-92
2023/07/11 02:27:18;;;;;;;7.70;2.38;;;;;;;;;;4840183;29;21014;-93
2023/07/11 02:29:44;;;;;;;6.78;2.25;;;;;;;;;;4913490;29;20121;-93
2023/07/11 02:32:13;;;;;;;7.75;2.60;;;;;;;;;;4912116;29;20036;-91
2023/07/11 02:34:49;;;;;;;8.77;2.33;;;;;;;;;;4912885;29;20479;-93
2023/07/11 02:37:51;;;;;;;;;;;;;;;;;;;;;
2023/07/11 02:40:36;;;;;;;12.63;2.97;;;;;;;;;;4932383;29;20140;-93
2023/07/11 02:43:30;;;;;;;7.22;2.58;;;;;;;;;;4928707;29;20036;-94
2023/07/11 02:46:01;;;;;;;11.50;3.17;;;;;;;;;;4935173;28;20099;-93
2023/07/11 02:48:45;;;;;;;11.45;3.78;;;;;;;;;;4913345;29;20028;-93
2023/07/11 02:51:42;;;;;;;10.07;3.42;;;;;;;;;;4893885;29;20134;-91
2023/07/11 02:56:58;;;;;;;6.53;2.45;;;;;;;;;;4880111;28;20090;-93
2023/07/11 02:59:31;;;;;;;10.98;3.17;;;;;;;;;;4959460;28;20501;-92
2023/07/11 03:02:01;;;;;;;9.80;2.60;;;;;;;;;;4956881;28;20030;-93
2023/07/11 03:04:28;;;;;;;5.20;2.70;;;;;;;;;;4944876;28;20047;-92
2023/07/11 03:06:58;;;;;;;6.90;2.95;;;;;;;;;;4958516;28;20055;-92
2023/07/11 03:09:28;;;;;;;7.85;2.97;;;;;;;;;;4960301;28;20375;-93
2023/07/11 03:12:05;;;;;;;4.80;2.60;;;;;;;;;;4960303;28;20069;-93
2023/07/11 03:17:45;;;;;;;10.90;2.83;;;;;;;;;;4883910;29;20048;-92
2023/07/11 03:20:30;;;;;;;9.48;2.53;;;;;;;;;;4973906;28;20043;-94
2023/07/11 03:23:00;;;;;;;8.30;2.40;;;;;;;;;;4956443;28;20058;-93
2023/07/11 03:25:27;;;;;;;7.13;2.88;;;;;;;;;;4966868;28;20039;-93
2023/07/11 03:27:56;;;;;;;7.38;2.80;;;;;;;;;;4984128;28;20030;-94
2023/07/11 03:30:34;;;;;;;9.05;2.42;;;;;;;;;;4965738;28;20010;-93
2023/07/11 03:33:00;;;;;;;7.50;2.92;;;;;;;;;;4971953;28;20073;-93
2023/07/11 03:35:36;;;;;;;11.25;3.00;;;;;;;;;;4971857;28;20034;-93
2023/07/11 03:38:05;;;;;;;;;;;;;;;;;;4987092;28;20070;-92
2023/07/11 03:40:31;;;;;;;11.02;2.63;;;;;;;;;;4972009;28;19943;-92
2023/07/11 03:43:10;;;;;;;7.05;3.00;;;;;;;;;;4963314;28;20062;-93
2023/07/11 03:45:36;;;;;;;8.00;3.03;;;;;;;;;;4957417;28;20030;-93
2023/07/11 03:48:28;;;;;;;7.00;2.83;;;;;;;;;;4964837;28;20039;-93
2023/07/11 03:50:54;;;;;;;6.00;2.80;;;;;;;;;;4964008;28;20098;-94
2023/07/11 03:53:39;;;;;;;8.18;2.80;;;;;;;;;;4961862;28;20031;-93
2023/07/11 03:56:09;;;;;;;8.48;3.10;;;;;;;;;;4956298;28;20023;-92
2023/07/11 03:58:36;;;;;;;6.85;3.03;;;;;;;;;;4958397;28;20035;-93
2023/07/11 04:01:35;;;;;;;5.70;2.70;;;;;;;;;;4949106;28;20074;-92
2023/07/11 04:04:12;;;;;;;11.55;2.83;;;;;;;;;;4928883;29;20094;-92
2023/07/11 04:06:54;;;;;;;;;;;;;;;;;;;;;
2023/07/11 04:09:23;;;;;;;5.93;2.88;;;;;;;;;;4973636;28;20103;-93
2023/07/11 04:14:37;;;;;;;7.22;3.42;;;;;;;;;;4870035;29;20128;-93
2023/07/11 04:17:24;;;;;;;6.72;2.70;;;;;;;;;;4873480;29;20062;-93
2023/07/11 04:20:10;;;;;;;10.30;3.13;;;;;;;;;;4924835;28;20031;-94
2023/07/11 04:25:43;;;;;;;7.07;2.88;;;;;;;;;;4977696;28;20039;-93
2023/07/11 04:28:10;;;;;;;7.85;2.80;;;;;;;;;;4966993;28;20027;-92
2023/07/11 04:30:46;;;;;;;11.38;3.22;;;;;;;;;;4960817;28;20131;-92
2023/07/11 04:33:13;;;;;;;14.23;3.40;;;;;;;;;;4982286;28;20029;-93
2023/07/11 04:35:57;;;;;;;10.88;3.45;;;;;;;;;;4967863;28;20031;-92
2023/07/11 04:38:35;;;;;;;7.90;2.80;;;;;;;;;;4982079;28;20026;-93
2023/07/11 04:41:08;;;;;;;9.90;3.33;;;;;;;;;;4964299;28;20030;-92
2023/07/11 04:44:07;;;;;;;9.82;3.85;;;;;;;;;;4963102;28;20110;-92
2023/07/11 04:46:32;;;;;;;10.80;3.33;;;;;;;;;;4968749;28;20042;-93
2023/07/11 04:48:59;;;;;;;6.93;3.42;;;;;;;;;;4949236;28;20057;-93
2023/07/11 04:51:25;;;;;;;8.82;3.58;;;;;;;;;;4965081;28;20498;-93
2023/07/11 04:53:52;;;;;;;12.35;3.65;;;;;;;;;;4966108;28;20035;-93
2023/07/11 04:56:25;;;;;;;10.13;3.22;;;;;;;;;;4964370;28;20024;-92
2023/07/11 04:58:52;;;;;;;14.13;3.25;;;;;;;;;;4962686;28;20031;-93
2023/07/11 05:01:27;;;;;;;18.83;4.28;;;;;;;;;;4966792;28;20037;-93
2023/07/11 05:03:53;;;;;;;17.67;3.88;;;;;;;;;;4960433;28;20031;-93
2023/07/11 05:06:20;;;;;;;8.57;3.40;;;;;;;;;;4972031;28;20082;-93
2023/07/11 05:08:47;;;;;;;10.35;3.35;;;;;;;;;;4960691;28;20034;-93
2023/07/11 05:11:18;;;;;;;12.95;3.60;;;;;;;;;;4955959;28;20034;-94
2023/07/11 05:13:48;;;;;;;15.85;3.97;;;;;;;;;;4977641;28;20030;-93
2023/07/11 05:16:29;;;;;;;8.40;3.40;;;;;;;;;;4959341;29;20019;-93
2023/07/11 05:18:59;;;;;;;10.45;3.78;;;;;;;;;;4992949;28;20050;-93
2023/07/11 05:21:51;;;;;;;6.30;3.20;;;;;;;;;;4975424;28;20050;-92
2023/07/11 06:12:56;;;;;;;;;;;;;;;;;;;;;
2023/07/11 06:16:05;;;;;;;6.15;3.60;;;;;;;;;;4952708;28;20050;-84
2023/07/11 06:18:50;;;;;;;8.85;3.83;;;;;;;;;;4966244;28;20055;-85
2023/07/11 06:21:18;;;;;;;9.25;4.35;;;;;;;;;;4993299;28;20097;-85
2023/07/11 06:23:56;;;;;;;7.78;3.67;;;;;;;;;;4981949;28;20038;-85
2023/07/11 06:26:26;;;;;;;8.73;4.00;;;;;;;;;;4967767;28;20045;-85
2023/07/11 06:28:52;;;;;;;9.50;3.75;;;;;;;;;;4962847;28;20031;-85
2023/07/11 06:31:18;;;;;;;6.20;3.95;;;;;;;;;;4967404;28;20034;-85
2023/07/11 06:34:13;;;;;;;8.75;3.53;;;;;;;;;;4968223;28;20392;-85
2023/07/11 06:36:39;;;;;;;7.90;3.92;;;;;;;;;;4965497;28;20444;-84
2023/07/11 06:39:15;;;;;;;9.57;3.50;;;;;;;;;;4952496;28;20120;-85
2023/07/11 06:41:45;;;;;;;11.23;4.05;;;;;;;;;;4983243;28;20031;-85
2023/07/11 06:44:11;;;;;;;10.40;4.03;;;;;;;;;;4966477;28;20140;-84
2023/07/11 06:46:39;;;;;;;7.15;3.88;;;;;;;;;;4968742;28;20062;-85
2023/07/11 06:49:07;;;;;;;11.20;4.60;;;;;;;;;;4969061;28;20058;-85
2023/07/11 06:51:34;;;;;;;11.02;4.03;;;;;;;;;;4968316;28;20086;-85
2023/07/11 06:54:05;;;;;;;10.52;3.83;;;;;;;;;;4983521;28;20047;-84
2023/07/11 06:56:32;;;;;;;11.77;4.53;;;;;;;;;;4969784;28;20034;-86
2023/07/11 06:58:59;;;;;;;10.95;4.40;;;;;;;;;;4965119;28;20030;-85
2023/07/11 07:01:27;;;;;;;10.27;4.43;;;;;;;;;;4948371;29;20057;-85
2023/07/11 07:04:00;;;;;;;11.40;3.75;;;;;;;;;;4948717;29;21091;-85
2023/07/11 07:06:37;;;;;;;7.65;3.80;;;;;;;;;;4935112;29;20094;-85
2023/07/11 07:09:13;;;;;;;9.48;3.78;;;;;;;;;;4929689;29;20059;-85
2023/07/11 07:11:56;;;;;;;9.60;3.65;;;;;;;;;;4971288;28;20622;-85
2023/07/11 07:14:23;;;;;;;9.40;3.50;;;;;;;;;;4950191;29;20046;-86
2023/07/11 07:17:00;;;;;;;22.77;3.53;;;;;;;;;;4951213;29;20035;-85
2023/07/11 07:22:38;;;;;;;11.18;3.47;;;;;;;;;;4889012;29;20033;-86
2023/07/11 07:29:06;;;;;;;;;;;;;;;;;;;;;
2023/07/11 07:34:54;;;;;;;5.75;2.90;;;;;;;;;;4880071;29;20044;-85
2023/07/11 07:37:52;;;;;;;11.52;3.20;;;;;;;;;;4911446;29;20101;-85
2023/07/11 07:53:06;;;;;;;6.53;3.00;;;;;;;;;;4903781;29;20048;-86
2023/07/11 07:56:21;;;;;;;6.03;2.90;;;;;;;;;;4896617;29;20040;-85
2023/07/11 07:59:24;;;;;;;8.18;3.70;;;;;;;;;;4867591;29;20046;-85
2023/07/11 08:01:52;;;;;;;11.20;3.33;;;;;;;;;;4863638;29;20070;-86
2023/07/11 08:11:13;;;;;;;5.55;2.88;;;;;;;;;;4809700;29;20113;-86
2023/07/11 08:23:54;;;;;;;7.85;3.38;;;;;;;;;;4791541;29;20409;-86
2023/07/11 08:26:10;;;;;;;11.70;3.05;;;;;;;;;;4797660;29;20040;-86
2023/07/11 08:29:20;;;;;;;;;;;;;;;;;;;;;
2023/07/11 08:32:27;;;;;;;9.63;3.88;;;;;;;;;;4883355;29;20075;-85
2023/07/11 08:38:19;;;;;;;7.32;3.30;;;;;;;;;;4914494;29;19900;-86
2023/07/11 08:44:23;;;;;;;;;;;;;;;;;;;;;
2023/07/11 08:53:00;;;;;;;11.90;3.00;;;;;;;;;;4864711;29;19916;-85
2023/07/11 09:04:58;;;;;;;8.82;3.00;;;;;;;;;;4821185;29;20030;-86
2023/07/11 09:14:40;;;;;;;5.85;2.78;;;;;;;;;;4828261;29;20080;-85
2023/07/11 09:17:26;;;;;;;9.05;3.13;;;;;;;;;;4843952;29;20038;-86
2023/07/11 09:20:15;;;;;;;9.18;3.88;;;;;;;;;;4892776;29;20029;-86
2023/07/11 09:25:59;;;;;;;6.60;2.42;;;;;;;;;;4864608;29;20034;-85
2023/07/11 09:32:30;;;;;;;;;;;;;;;;;;;;;
2023/07/11 09:38:39;;;;;;;;;;;;;;;;;;;;;
2023/07/11 09:41:32;;;;;;;5.93;2.90;;;;;;;;;;4827944;29;20078;-86
2023/07/11 09:44:29;;;;;;;12.38;3.15;;;;;;;;;;4879850;29;20058;-85
2023/07/11 09:56:59;;;;;;;5.43;2.13;;;;;;;;;;4742104;30;20052;-85
2023/07/11 09:59:58;;;;;;;;;;;;;;;;;;;;;
2023/07/11 10:05:50;;;;;;;4.43;2.17;;;;;;;;;;4883258;29;20497;-85
2023/07/11 10:08:30;;;;;;;7.35;2.47;;;;;;;;;;4875917;29;20046;-84
2023/07/11 10:11:07;;;;;;;7.55;1.75;;;;;;;;;;4908882;29;20069;-86
2023/07/11 10:13:34;;;;;;;4.60;2.40;;;;;;;;;;4908826;29;21393;-86
2023/07/11 10:16:18;;;;;;;7.13;2.00;;;;;;;;;;4912402;29;20548;-85
2023/07/11 10:19:05;;;;;;;5.75;2.60;;;;;;;;;;4912176;29;20036;-87
2023/07/11 10:22:00;;;;;;;8.25;2.70;;;;;;;;;;4918275;29;20063;-85
2023/07/11 10:24:46;;;;;;;;;;;;;;;;;;;;;
2023/07/11 10:27:37;;;;;;;6.20;2.25;;;;;;;;;;4953277;29;20036;-87
2023/07/11 10:30:26;;;;;;;5.57;2.50;;;;;;;;;;4947562;29;20044;-87
2023/07/11 10:33:04;;;;;;;8.52;2.40;;;;;;;;;;4931662;29;20120;-86
2023/07/11 10:35:55;;;;;;;6.65;2.60;;;;;;;;;;4935268;29;20047;-86
2023/07/11 10:38:30;;;;;;;6.63;2.28;;;;;;;;;;4913811;29;20063;-87
2023/07/11 10:41:00;;;;;;;;;;;;;;;;;;4947877;29;20031;-87
2023/07/11 10:46:59;;;;;;;6.13;3.05;;;;;;;;;;4930132;29;20108;-86
2023/07/11 10:53:01;;;;;;;4.72;2.65;;;;;;;;;;4918812;29;20039;-86
2023/07/11 10:56:04;;;;;;;3.50;2.42;;;;;;;;;;4917504;29;20086;-86
2023/07/11 10:58:38;;;;;;;7.55;2.30;;;;;;;;;;4897238;29;20036;-87
2023/07/11 11:01:23;;;;;;;;;;;;;;;;;;;;;
2023/07/11 11:04:08;;;;;;;4.88;2.38;;;;;;;;;;4956253;29;20067;-87
2023/07/11 11:07:32;;;;;;;7.70;2.72;;;;;;;;;;4941001;29;20051;-87
2023/07/11 11:13:20;;;;;;;;;;;;;;;;;;;;;
2023/07/11 11:16:25;;;;;;;6.97;2.35;;;;;;;;;;4827662;29;20047;-86
2023/07/11 11:19:20;;;;;;;6.68;2.42;;;;;;;;;;4803238;29;20073;-85
2023/07/11 11:22:22;;;;;;;;;;;;;;;;;;;;;
2023/07/11 11:25:15;;;;;;;12.85;3.42;;;;;;;;;;4808080;29;20061;-86
2023/07/11 11:28:07;;;;;;;10.45;2.28;;;;;;;;;;4814978;29;20053;-86
2023/07/11 11:34:06;;;;;;;7.45;2.80;;;;;;;;;;4854520;29;20037;-86
2023/07/11 11:39:45;;;;;;;2.88;2.45;;;;;;;;;;4937264;29;20062;-86
2023/07/11 11:42:50;;;;;;;6.57;2.60;;;;;;;;;;4935073;29;20050;-86
2023/07/11 11:45:21;;;;;;;11.40;2.55;;;;;;;;;;4933736;29;20132;-86
2023/07/11 11:48:16;;;;;;;4.82;2.50;;;;;;;;;;4941636;29;20048;-86
2023/07/11 11:50:52;;;;;;;10.13;2.45;;;;;;;;;;4947153;29;20035;-85
2023/07/11 11:53:48;;;;;;;6.47;1.95;;;;;;;;;;4930646;29;20095;-84
2023/07/11 12:02:48;;;;;;;5.82;2.90;;;;;;;;;;4927705;29;20036;-86
2023/07/11 12:05:44;;;;;;;4.57;2.20;;;;;;;;;;4953512;29;20019;-86
2023/07/11 12:08:48;;;;;;;6.32;2.10;;;;;;;;;;4922261;29;20085;-86
2023/07/11 12:11:52;;;;;;;8.07;2.97;;;;;;;;;;4949787;29;20019;-86
2023/07/11 12:14:43;;;;;;;8.05;2.50;;;;;;;;;;4932391;29;20061;-86
2023/07/11 12:17:30;;;;;;;8.18;2.53;;;;;;;;;;4924542;29;20043;-85
2023/07/11 12:23:01;;;;;;;7.07;3.00;;;;;;;;;;4928250;29;20031;-86
2023/07/11 12:25:41;;;;;;;10.10;2.75;;;;;;;;;;4948168;29;20057;-87
2023/07/11 12:28:22;;;;;;;3.88;2.40;;;;;;;;;;4932614;29;20024;-87
2023/07/11 12:31:03;;;;;;;9.88;3.20;;;;;;;;;;4940717;29;20122;-87
2023/07/11 12:34:17;;;;;;;;;;;;;;;;;;;;;
2023/07/11 12:37:04;;;;;;;8.70;2.97;;;;;;;;;;4895366;29;20025;-87
2023/07/11 12:42:46;;;;;;;5.03;2.40;;;;;;;;;;4956006;29;20310;-86
2023/07/11 12:45:20;;;;;;;15.00;2.63;;;;;;;;;;4949709;29;20054;-86
2023/07/11 12:48:39;;;;;;;12.65;2.55;;;;;;;;;;4915355;29;20107;-86
2023/07/11 12:51:17;;;;;;;;;;;;;;;;;;;;;
2023/07/11 12:53:45;;;;;;;5.82;2.67;;;;;;;;;;4946734;29;20047;-86
2023/07/11 12:56:27;;;;;;;10.85;3.00;;;;;;;;;;4941185;29;20012;-86
2023/07/11 12:59:02;;;;;;;9.98;3.28;;;;;;;;;;4930377;29;20024;-86
2023/07/11 13:01:45;;;;;;;9.67;3.23;;;;;;;;;;4952229;28;20066;-87
2023/07/11 13:04:34;;;;;;;8.52;2.58;;;;;;;;;;4940850;29;20283;-86
2023/07/11 13:07:10;;;;;;;6.95;2.92;;;;;;;;;;4929190;29;20158;-86
2023/07/11 13:09:59;;;;;;;9.05;3.35;;;;;;;;;;4932701;29;20119;-86
2023/07/11 13:12:52;;;;;;;7.35;2.70;;;;;;;;;;4925860;29;20040;-86
2023/07/11 13:15:21;;;;;;;5.50;2.55;;;;;;;;;;4943507;29;20391;-86
2023/07/11 13:18:16;;;;;;;9.40;3.00;;;;;;;;;;4930896;29;20027;-87
2023/07/11 13:20:52;;;;;;;13.85;2.70;;;;;;;;;;4936322;29;20511;-87
2023/07/11 13:23:21;;;;;;;10.77;3.20;;;;;;;;;;4942096;29;20063;-86
2023/07/11 13:25:48;;;;;;;8.57;3.88;;;;;;;;;;4928908;29;20096;-86
2023/07/11 13:28:16;;;;;;;11.13;3.88;;;;;;;;;;4947627;29;20055;-87
2023/07/11 13:31:05;;;;;;;6.57;3.17;;;;;;;;;;4933904;29;20028;-87
2023/07/11 13:34:31;;;;;;;4.47;2.80;;;;;;;;;;4930398;29;20060;-86
2023/07/11 13:37:00;;;;;;;8.02;2.90;;;;;;;;;;4946108;29;20039;-86
2023/07/11 13:39:34;;;;;;;10.48;3.75;;;;;;;;;;4936035;29;20019;-87
2023/07/11 13:42:09;;;;;;;7.47;3.47;;;;;;;;;;4933768;29;20019;-86
2023/07/11 13:44:43;;;;;;;10.70;3.25;;;;;;;;;;4935691;29;20031;-87
2023/07/11 13:47:29;;;;;;;10.43;2.75;;;;;;;;;;4936038;29;20034;-87
2023/07/11 13:50:04;;;;;;;15.95;3.88;;;;;;;;;;4949719;29;20044;-87
2023/07/11 13:52:34;;;;;;;5.50;2.60;;;;;;;;;;4948797;29;20016;-87
2023/07/11 13:55:16;;;;;;;4.10;2.67;;;;;;;;;;4934223;29;20030;-87
2023/07/11 13:57:45;;;;;;;6.53;2.55;;;;;;;;;;4951672;29;20016;-87
2023/07/11 14:00:19;;;;;;;9.90;2.80;;;;;;;;;;4956708;29;20058;-86
2023/07/11 14:02:56;;;;;;;14.63;3.00;;;;;;;;;;4951333;28;20145;-87
2023/07/11 14:05:30;;;;;;;6.35;2.03;;;;;;;;;;4913157;29;20063;-87
2023/07/11 14:08:16;;;;;;;;;;;;;;;;;;;;;
2023/07/11 14:11:09;;;;;;;6.97;2.67;;;;;;;;;;4922197;28;20048;-87
2023/07/11 14:13:49;;;;;;;;;;;;;;;;;;;;;
2023/07/11 14:16:18;;;;;;;6.40;3.03;;;;;;;;;;4939014;29;20064;-87
2023/07/11 14:18:51;;;;;;;6.00;2.58;;;;;;;;;;4951091;29;20047;-87
2023/07/11 14:21:22;;;;;;;7.57;2.45;;;;;;;;;;4923990;29;20099;-87
2023/07/11 14:24:05;;;;;;;7.93;2.70;;;;;;;;;;4940232;29;20034;-87
2023/07/11 14:26:54;;;;;;;7.03;2.42;;;;;;;;;;4951188;29;20031;-86
2023/07/11 14:29:49;;;;;;;7.30;2.78;;;;;;;;;;4930932;29;20095;-87
2023/07/11 14:32:22;;;;;;;6.78;2.60;;;;;;;;;;4952545;29;20032;-87
2023/07/11 14:34:56;;;;;;;8.27;2.20;;;;;;;;;;4917981;29;20022;-87
2023/07/11 14:37:39;;;;;;;;;;;;;;;;;;;;;
2023/07/11 14:40:15;;;;;;;6.57;2.08;;;;;;;;;;4943302;29;20088;-86
2023/07/11 14:42:57;;;;;;;;;;;;;;;;;;4921889;29;20058;-86
2023/07/11 14:45:32;;;;;;;3.50;2.13;;;;;;;;;;4935078;29;19911;-86
2023/07/11 14:47:58;;;;;;;;;;;;;;;;;;4950884;29;20023;-87
2023/07/11 14:50:31;;;;;;;5.32;1.80;;;;;;;;;;4940363;29;19906;-86
2023/07/11 14:52:59;;;;;;;6.95;1.95;;;;;;;;;;4934820;29;20015;-86
2023/07/11 14:55:25;;;;;;;5.85;1.60;;;;;;;;;;4936007;29;20047;-86
2023/07/11 15:01:18;;;;;;;6.38;1.50;;;;;;;;;;4905765;29;20036;-86
2023/07/11 15:03:47;;;;;;;3.65;1.70;;;;;;;;;;4939390;28;20051;-84
2023/07/11 15:06:13;;;;;;;3.75;1.60;;;;;;;;;;4915039;29;20292;-86
2023/07/11 15:08:41;;;;;;;5.68;1.88;;;;;;;;;;4933731;29;20454;-86
2023/07/11 15:11:23;;;;;;;3.90;1.70;;;;;;;;;;4916781;29;20067;-85
2023/07/11 15:13:53;;;;;;;10.10;1.83;;;;;;;;;;4929394;29;20036;-85
2023/07/11 15:16:29;;;;;;;4.22;1.30;;;;;;;;;;4916652;29;20089;-86
2023/07/11 15:18:56;;;;;;;5.53;1.70;;;;;;;;;;4943180;29;20548;-86
2023/07/11 15:21:25;;;;;;;6.95;1.50;;;;;;;;;;4912925;29;20079;-86
2023/07/11 15:23:55;;;;;;;3.33;1.70;;;;;;;;;;4912741;29;20046;-87
2023/07/11 15:26:25;;;;;;;7.72;2.20;;;;;;;;;;4930295;29;20066;-86
2023/07/11 15:28:51;;;;;;;6.15;1.70;;;;;;;;;;4926144;29;20039;-86
2023/07/11 15:31:20;;;;;;;2.92;1.60;;;;;;;;;;4915124;29;20042;-86
2023/07/11 15:33:57;;;;;;;5.90;1.77;;;;;;;;;;4925715;29;20055;-86
2023/07/11 15:36:23;;;;;;;7.30;1.83;;;;;;;;;;4916833;29;20110;-86
2023/07/11 15:38:51;;;;;;;6.10;2.10;;;;;;;;;;4926105;29;20050;-86
2023/07/11 15:41:23;;;;;;;7.07;1.90;;;;;;;;;;4913777;29;20366;-86
2023/07/11 15:44:00;;;;;;;8.07;2.20;;;;;;;;;;4906748;29;20075;-85
2023/07/11 15:46:27;;;;;;;4.13;1.92;;;;;;;;;;4945071;29;20615;-87
2023/07/11 15:48:57;;;;;;;6.90;2.13;;;;;;;;;;4943422;29;20058;-86
2023/07/11 15:51:23;;;;;;;8.00;2.53;;;;;;;;;;4937815;29;20088;-86
2023/07/11 15:54:02;;;;;;;;;;;;;;;;;;;;;
2023/07/11 15:56:36;;;;;;;161.68;32.75;;;;;;;;;;4898423;29;20086;-87
2023/07/11 15:59:02;;;;;;;24.63;6.35;;;;;;;;;;4932045;29;20046;-86
2023/07/11 16:01:33;;;;;;;14.77;3.95;;;;;;;;;;4930359;29;20047;-86
2023/07/11 16:04:22;;;;;;;9.48;3.72;;;;;;;;;;4930777;29;20214;-86
2023/07/11 16:09:53;;;;;;;8.35;2.25;;;;;;;;;;4899247;29;20044;-87
2023/07/11 16:12:20;;;;;;;7.53;2.33;;;;;;;;;;4920871;29;20432;-86
2023/07/11 16:15:02;;;;;;;;;;;;;;;;;;;;;
2023/07/11 16:17:39;;;;;;;7.60;2.10;;;;;;;;;;4927794;29;20050;-86
2023/07/11 16:20:27;;;;;;;6.47;2.67;;;;;;;;;;4930381;29;20043;-86
2023/07/11 16:25:46;;;;;;;5.00;1.90;;;;;;;;;;4926185;29;20421;-86
2023/07/11 16:29:03;;;;;;;;;;;;;;;;;;;;;
2023/07/11 16:31:56;;;;;;;6.20;2.50;;;;;;;;;;4925686;29;20047;-87
2023/07/11 16:34:49;;;;;;;5.97;2.33;;;;;;;;;;4951795;28;20039;-87
2023/07/11 16:37:20;;;;;;;5.55;2.55;;;;;;;;;;4861386;29;20408;-85
2023/07/11 16:39:58;;;;;;;6.18;2.33;;;;;;;;;;4856699;29;20066;-85
2023/07/11 16:42:25;;;;;;;11.65;2.47;;;;;;;;;;4916846;29;20125;-85
2023/07/11 16:44:51;;;;;;;8.20;2.55;;;;;;;;;;4912166;29;20070;-85
2023/07/11 16:47:28;;;;;;;9.90;2.28;;;;;;;;;;4924965;29;20028;-86
2023/07/11 16:49:59;;;;;;;;;;;;;;;;;;4929489;28;20016;-88
2023/07/11 16:53:16;;;;;;;;;;;;;;;;;;;;;
2023/07/11 16:55:47;;;;;;;5.22;2.58;;;;;;;;;;4944242;29;20056;-85
2023/07/11 16:58:37;;;;;;;7.80;2.13;;;;;;;;;;4946567;29;20051;-88
2023/07/11 17:04:07;;;;;;;8.02;2.47;;;;;;;;;;4942222;29;20067;-84
2023/07/11 17:06:35;;;;;;;6.28;2.65;;;;;;;;;;4920248;29;20063;-84
2023/07/11 17:09:18;;;;;;;6.85;2.53;;;;;;;;;;4951125;29;20366;-86
2023/07/11 17:12:00;;;;;;;6.82;2.28;;;;;;;;;;4943524;29;20125;-87
2023/07/11 17:14:29;;;;;;;5.40;2.60;;;;;;;;;;4949191;29;20043;-86
2023/07/11 17:17:10;;;;;;;3.97;2.17;;;;;;;;;;4952291;29;20038;-85
2023/07/11 18:25:28;;;;;;;4.50;2.03;;;;;;;;;;4993201;28;20056;-80
2023/07/11 18:27:56;;;;;;;6.85;1.75;;;;;;;;;;4998619;28;20038;-80
2023/07/11 18:30:35;;;;;;;3.65;1.90;;;;;;;;;;4974610;28;20041;-78
2023/07/11 18:33:01;;;;;;;6.80;2.00;;;;;;;;;;4991938;28;20713;-78
2023/07/11 18:35:30;;;;;;;4.65;2.17;;;;;;;;;;4977752;28;20023;-79
2023/07/11 18:37:56;;;;;;;7.65;2.40;;;;;;;;;;4977894;28;20574;-78
2023/07/11 18:40:32;;;;;;;6.40;1.77;;;;;;;;;;4962101;28;20438;-77
2023/07/11 18:43:24;;;;;;;3.22;1.55;;;;;;;;;;4974769;28;20040;-79
2023/07/11 18:45:52;;;;;;;3.20;1.48;;;;;;;;;;4990673;28;20053;-77
2023/07/11 18:48:21;;;;;;;8.05;1.98;;;;;;;;;;4964984;28;20034;-79
2023/07/11 18:50:54;;;;;;;2.60;1.83;;;;;;;;;;4967230;28;20022;-78
2023/07/11 18:53:22;;;;;;;4.68;1.88;;;;;;;;;;4995602;28;20026;-78
2023/07/11 18:55:50;;;;;;;5.47;1.80;;;;;;;;;;4995295;28;20038;-79
2023/07/11 18:58:17;;;;;;;3.75;1.60;;;;;;;;;;4965155;28;20053;-79
2023/07/11 19:00:47;;;;;;;4.80;1.15;;;;;;;;;;4957092;28;20042;-79
2023/07/11 19:03:16;;;;;;;7.07;1.95;;;;;;;;;;4977607;28;20026;-78
2023/07/11 19:05:51;;;;;;;3.83;1.60;;;;;;;;;;4956969;28;20034;-79
2023/07/11 19:08:32;;;;;;;4.80;1.50;;;;;;;;;;4959900;28;20059;-79
2023/07/11 19:11:02;;;;;;;6.07;1.70;;;;;;;;;;4974682;28;20618;-80
2023/07/11 19:13:28;;;;;;;8.07;1.85;;;;;;;;;;4957926;28;20155;-81
2023/07/11 19:15:58;;;;;;;5.18;1.58;;;;;;;;;;4944503;28;20062;-81
2023/07/11 19:18:25;;;;;;;6.80;1.98;;;;;;;;;;4959111;28;20034;-82
2023/07/11 19:21:09;;;;;;;5.15;1.73;;;;;;;;;;4950226;28;20375;-79
2023/07/11 19:23:38;;;;;;;3.38;1.90;;;;;;;;;;4956730;28;20054;-78
2023/07/11 19:26:11;;;;;;;7.55;2.15;;;;;;;;;;4959282;28;20030;-78
2023/07/11 19:28:38;;;;;;;3.35;1.88;;;;;;;;;;4953518;28;20057;-77
2023/07/11 19:31:11;;;;;;;3.35;2.00;;;;;;;;;;4973494;28;20513;-79
2023/07/11 19:33:45;;;;;;;3.65;1.85;;;;;;;;;;4952180;28;20046;-79
2023/07/11 19:36:17;;;;;;;5.47;2.00;;;;;;;;;;4960685;28;20041;-79
2023/07/11 19:38:47;;;;;;;14.82;3.92;;;;;;;;;;4970110;28;20035;-80
2023/07/11 19:41:16;;;;;;;4.43;1.70;;;;;;;;;;4973556;28;20031;-79
2023/07/11 19:43:45;;;;;;;3.17;1.52;;;;;;;;;;4975462;28;20062;-79
2023/07/11 19:46:15;;;;;;;2.85;1.40;;;;;;;;;;4976099;28;20039;-79
2023/07/11 19:48:51;;;;;;;5.20;1.48;;;;;;;;;;4958346;28;20086;-79
2023/07/11 19:51:17;;;;;;;3.50;1.55;;;;;;;;;;4956125;28;20150;-78
2023/07/11 19:53:47;;;;;;;6.30;1.98;;;;;;;;;;4960016;28;20034;-79
2023/07/11 19:56:20;;;;;;;3.90;1.83;;;;;;;;;;4972287;28;20041;-80
2023/07/11 19:59:10;;;;;;;3.53;1.60;;;;;;;;;;4979258;28;20031;-80
2023/07/11 20:01:36;;;;;;;3.72;1.60;;;;;;;;;;4959598;28;20035;-79
2023/07/11 20:04:24;;;;;;;3.80;1.65;;;;;;;;;;4947415;28;20075;-79
2023/07/11 20:06:56;;;;;;;10.13;1.80;;;;;;;;;;4940455;28;20035;-80
2023/07/11 20:09:24;;;;;;;3.53;1.63;;;;;;;;;;4954902;28;20038;-78
2023/07/11 20:15:16;;;;;;;4.93;2.33;;;;;;;;;;4978937;28;20065;-84
2023/07/11 20:17:44;;;;;;;7.25;1.80;;;;;;;;;;4957234;28;20035;-84
2023/07/11 20:20:39;;;;;;;5.05;1.77;;;;;;;;;;4963953;28;20055;-84
2023/07/11 20:23:08;;;;;;;7.25;1.48;;;;;;;;;;4957963;28;20121;-84
2023/07/11 20:25:56;;;;;;;2.50;1.65;;;;;;;;;;4972992;28;20046;-84
2023/07/11 20:28:31;;;;;;;3.33;1.33;;;;;;;;;;4955062;28;20038;-84
2023/07/11 20:31:04;;;;;;;2.58;1.10;;;;;;;;;;4974250;28;20089;-83
2023/07/11 20:33:49;;;;;;;10.20;2.10;;;;;;;;;;4954967;28;20621;-85
2023/07/11 20:36:21;;;;;;;4.65;1.88;;;;;;;;;;4958562;28;20031;-85
2023/07/11 20:38:51;;;;;;;4.82;1.40;;;;;;;;;;4972368;28;20228;-85
2023/07/11 20:41:20;;;;;;;5.15;1.92;;;;;;;;;;4968241;28;20518;-84
2023/07/11 20:43:48;;;;;;;5.93;1.73;;;;;;;;;;4947040;28;20051;-85
2023/07/11 20:49:25;;;;;;;6.13;1.73;;;;;;;;;;4970774;28;20033;-84
2023/07/11 20:51:51;;;;;;;5.95;1.70;;;;;;;;;;4956822;28;20047;-85
2023/07/11 20:54:18;;;;;;;5.85;1.85;;;;;;;;;;4957091;28;20069;-85
2023/07/11 20:56:54;;;;;;;5.43;2.10;;;;;;;;;;4975569;28;20062;-85
2023/07/11 20:59:21;;;;;;;8.45;1.70;;;;;;;;;;4964203;28;20031;-86